sensor_id;sensor_type;location;lat;lon;timestamp;pressure;altitude;pressure_sealevel;temperature;humidity
44297;BME280;51842;47.450;8.654;2023-10-13T00:01:59;95760.31;;;12.01;86.57
44297;BME280;51842;47.450;8.654;2023-10-13T00:04:27;95762.44;;;11.99;86.80
44297;BME280;51842;47.450;8.654;2023-10-13T00:06:55;95769.94;;;11.92;87.59
44297;BME280;51842;47.450;8.654;2023-10-13T00:09:26;95771.81;;;11.86;87.22
44297;BME280;51842;47.450;8.654;2023-10-13T00:11:59;95765.88;;;11.84;87.07
44297;BME280;51842;47.450;8.654;2023-10-13T00:14:25;95766.16;;;11.82;86.34
44297;BME280;51842;47.450;8.654;2023-10-13T00:17:03;95763.22;;;11.74;87.27
44297;BME280;51842;47.450;8.654;2023-10-13T00:19:31;95761.63;;;11.73;87.48
44297;BME280;51842;47.450;8.654;2023-10-13T00:22:14;95772.56;;;11.61;88.36
44297;BME280;51842;47.450;8.654;2023-10-13T00:24:48;95766.97;;;11.57;88.05
44297;BME280;51842;47.450;8.654;2023-10-13T00:27:21;95759.50;;;11.65;87.20
44297;BME280;51842;47.450;8.654;2023-10-13T00:30:06;95762.44;;;11.58;87.97
44297;BME280;51842;47.450;8.654;2023-10-13T00:32:50;95756.81;;;11.54;88.60
44297;BME280;51842;47.450;8.654;2023-10-13T00:35:30;95755.78;;;11.50;88.27
44297;BME280;51842;47.450;8.654;2023-10-13T00:38:06;95755.22;;;11.48;88.79
44297;BME280;51842;47.450;8.654;2023-10-13T00:40:45;95751.22;;;11.46;88.92
44297;BME280;51842;47.450;8.654;2023-10-13T00:43:22;95746.41;;;11.58;87.42
44297;BME280;51842;47.450;8.654;2023-10-13T00:45:53;95747.75;;;11.66;86.24
44297;BME280;51842;47.450;8.654;2023-10-13T00:48:25;95751.25;;;11.81;86.03
44297;BME280;51842;47.450;8.654;2023-10-13T00:51:04;95750.69;;;11.79;85.95
44297;BME280;51842;47.450;8.654;2023-10-13T00:53:37;95747.22;;;11.74;86.52
44297;BME280;51842;47.450;8.654;2023-10-13T00:56:07;95746.16;;;11.70;86.44
44297;BME280;51842;47.450;8.654;2023-10-13T00:58:37;95753.91;;;11.76;86.67
44297;BME280;51842;47.450;8.654;2023-10-13T01:01:06;95756.81;;;11.75;86.65
44297;BME280;51842;47.450;8.654;2023-10-13T01:03:54;95755.22;;;11.64;87.54
44297;BME280;51842;47.450;8.654;2023-10-13T01:06:29;95747.75;;;11.61;87.63
44297;BME280;51842;47.450;8.654;2023-10-13T01:09:17;95747.75;;;11.61;87.46
44297;BME280;51842;47.450;8.654;2023-10-13T01:11:47;95740.84;;;11.60;87.43
44297;BME280;51842;47.450;8.654;2023-10-13T01:14:21;95744.28;;;11.55;87.88
44297;BME280;51842;47.450;8.654;2023-10-13T01:16:49;95741.91;;;11.53;87.18
44297;BME280;51842;47.450;8.654;2023-10-13T01:19:19;95737.06;;;11.55;87.74
44297;BME280;51842;47.450;8.654;2023-10-13T01:21:53;95743.22;;;11.61;87.49
44297;BME280;51842;47.450;8.654;2023-10-13T01:24:28;95730.16;;;11.54;88.82
44297;BME280;51842;47.450;8.654;2023-10-13T01:26:57;95733.34;;;11.62;86.81
44297;BME280;51842;47.450;8.654;2023-10-13T01:29:25;95732.81;;;11.65;87.14
44297;BME280;51842;47.450;8.654;2023-10-13T01:31:55;95728.81;;;11.67;86.81
44297;BME280;51842;47.450;8.654;2023-10-13T01:34:21;95730.69;;;11.62;87.38
44297;BME280;51842;47.450;8.654;2023-10-13T01:36:54;95725.88;;;11.53;87.49
44297;BME280;51842;47.450;8.654;2023-10-13T01:39:25;95720.00;;;11.51;87.71
44297;BME280;51842;47.450;8.654;2023-10-13T01:41:57;95728.28;;;11.55;87.42
44297;BME280;51842;47.450;8.654;2023-10-13T01:44:27;95722.41;;;11.53;87.45
44297;BME280;51842;47.450;8.654;2023-10-13T01:47:00;95724.81;;;11.49;87.93
44297;BME280;51842;47.450;8.654;2023-10-13T01:49:35;95721.31;;;11.44;87.78
44297;BME280;51842;47.450;8.654;2023-10-13T01:52:14;95721.06;;;11.45;88.13
44297;BME280;51842;47.450;8.654;2023-10-13T01:54:44;95718.94;;;11.47;87.88
44297;BME280;51842;47.450;8.654;2023-10-13T01:57:14;95727.50;;;11.44;87.55
44297;BME280;51842;47.450;8.654;2023-10-13T01:59:47;95724.56;;;11.41;87.95
44297;BME280;51842;47.450;8.654;2023-10-13T02:02:14;95712.00;;;11.41;87.84
44297;BME280;51842;47.450;8.654;2023-10-13T02:04:42;95715.19;;;11.43;86.95
44297;BME280;51842;47.450;8.654;2023-10-13T02:07:17;95725.06;;;11.43;86.83
44297;BME280;51842;47.450;8.654;2023-10-13T02:09:43;95724.28;;;11.52;86.92
44297;BME280;51842;47.450;8.654;2023-10-13T02:12:10;95721.34;;;11.54;85.80
44297;BME280;51842;47.450;8.654;2023-10-13T02:14:36;95717.06;;;11.53;86.71
44297;BME280;51842;47.450;8.654;2023-10-13T02:17:04;95721.34;;;11.49;86.73
44297;BME280;51842;47.450;8.654;2023-10-13T02:19:42;95716.56;;;11.51;86.90
44297;BME280;51842;47.450;8.654;2023-10-13T02:22:12;95718.94;;;11.52;86.46
44297;BME280;51842;47.450;8.654;2023-10-13T02:24:51;95716.81;;;11.54;86.55
44297;BME280;51842;47.450;8.654;2023-10-13T02:27:18;95707.75;;;11.50;86.75
44297;BME280;51842;47.450;8.654;2023-10-13T02:29:50;95725.06;;;11.53;86.34
44297;BME280;51842;47.450;8.654;2023-10-13T02:32:16;95716.00;;;11.49;87.45
44297;BME280;51842;47.450;8.654;2023-10-13T02:34:47;95719.22;;;11.41;87.29
44297;BME280;51842;47.450;8.654;2023-10-13T02:37:13;95720.81;;;11.42;87.04
44297;BME280;51842;47.450;8.654;2023-10-13T02:39:40;95717.34;;;11.46;86.85
44297;BME280;51842;47.450;8.654;2023-10-13T02:42:10;95719.72;;;11.27;88.91
44297;BME280;51842;47.450;8.654;2023-10-13T02:44:49;95715.72;;;11.20;89.10
44297;BME280;51842;47.450;8.654;2023-10-13T02:47:16;95712.50;;;11.18;89.05
44297;BME280;51842;47.450;8.654;2023-10-13T02:49:44;95718.13;;;11.21;88.78
44297;BME280;51842;47.450;8.654;2023-10-13T02:52:13;95716.78;;;11.19;89.22
44297;BME280;51842;47.450;8.654;2023-10-13T02:54:40;95717.56;;;11.14;88.98
44297;BME280;51842;47.450;8.654;2023-10-13T02:57:08;95715.16;;;11.07;89.40
44297;BME280;51842;47.450;8.654;2023-10-13T02:59:34;95718.38;;;11.04;89.78
44297;BME280;51842;47.450;8.654;2023-10-13T03:02:03;95709.00;;;10.97;90.21
44297;BME280;51842;47.450;8.654;2023-10-13T03:04:57;95711.41;;;10.93;90.14
44297;BME280;51842;47.450;8.654;2023-10-13T03:07:33;95708.47;;;10.95;90.51
44297;BME280;51842;47.450;8.654;2023-10-13T03:10:03;95707.41;;;10.91;90.71
44297;BME280;51842;47.450;8.654;2023-10-13T03:12:39;95704.47;;;10.82;91.46
44297;BME280;51842;47.450;8.654;2023-10-13T03:15:07;95705.22;;;10.77;91.74
44297;BME280;51842;47.450;8.654;2023-10-13T03:17:36;95701.22;;;10.70;91.66
44297;BME280;51842;47.450;8.654;2023-10-13T03:20:01;95699.59;;;10.63;92.49
44297;BME280;51842;47.450;8.654;2023-10-13T03:22:30;95700.13;;;10.60;91.86
44297;BME280;51842;47.450;8.654;2023-10-13T03:24:57;95699.56;;;10.58;92.28
44297;BME280;51842;47.450;8.654;2023-10-13T03:27:31;95699.84;;;10.57;92.01
44297;BME280;51842;47.450;8.654;2023-10-13T03:30:27;95694.56;;;10.72;91.33
44297;BME280;51842;47.450;8.654;2023-10-13T03:33:09;95697.25;;;10.77;90.77
44297;BME280;51842;47.450;8.654;2023-10-13T03:35:40;95694.56;;;10.72;90.97
44297;BME280;51842;47.450;8.654;2023-10-13T03:38:08;95687.63;;;10.71;90.80
44297;BME280;51842;47.450;8.654;2023-10-13T03:40:44;95684.44;;;10.74;89.68
44297;BME280;51842;47.450;8.654;2023-10-13T03:43:32;95685.00;;;10.76;90.36
44297;BME280;51842;47.450;8.654;2023-10-13T03:45:58;95677.25;;;10.75;90.14
44297;BME280;51842;47.450;8.654;2023-10-13T03:48:33;95677.53;;;10.73;89.88
44297;BME280;51842;47.450;8.654;2023-10-13T03:51:06;95667.94;;;10.72;90.27
44297;BME280;51842;47.450;8.654;2023-10-13T03:53:42;95674.34;;;10.76;89.88
44297;BME280;51842;47.450;8.654;2023-10-13T03:56:27;95670.63;;;10.87;89.16
44297;BME280;51842;47.450;8.654;2023-10-13T03:58:57;95667.69;;;10.89;88.66
44297;BME280;51842;47.450;8.654;2023-10-13T04:01:30;95669.84;;;10.97;87.22
44297;BME280;51842;47.450;8.654;2023-10-13T04:04:16;95663.19;;;11.05;87.19
44297;BME280;51842;47.450;8.654;2023-10-13T04:07:01;95665.06;;;11.04;86.77
44297;BME280;51842;47.450;8.654;2023-10-13T04:09:35;95669.84;;;10.97;88.06
44297;BME280;51842;47.450;8.654;2023-10-13T04:12:13;95670.63;;;10.82;88.93
44297;BME280;51842;47.450;8.654;2023-10-13T04:15:05;95659.94;;;10.77;88.28
44297;BME280;51842;47.450;8.654;2023-10-13T04:17:32;95663.41;;;10.73;89.35
44297;BME280;51842;47.450;8.654;2023-10-13T04:20:06;95661.00;;;10.66;89.65
44297;BME280;51842;47.450;8.654;2023-10-13T04:22:35;95654.81;;;10.55;89.65
44297;BME280;51842;47.450;8.654;2023-10-13T04:25:25;95655.31;;;10.42;90.19
44297;BME280;51842;47.450;8.654;2023-10-13T04:28:12;95652.38;;;10.38;90.79
44297;BME280;51842;47.450;8.654;2023-10-13T04:33:33;95645.91;;;10.24;91.94
44297;BME280;51842;47.450;8.654;2023-10-13T04:36:13;95637.91;;;10.19;91.79
44297;BME280;51842;47.450;8.654;2023-10-13T04:38:58;95641.09;;;10.16;91.73
44297;BME280;51842;47.450;8.654;2023-10-13T04:41:38;95640.56;;;10.19;90.27
44297;BME280;51842;47.450;8.654;2023-10-13T04:44:12;95649.97;;;10.37;89.28
44297;BME280;51842;47.450;8.654;2023-10-13T04:46:59;95649.22;;;10.47;88.56
44297;BME280;51842;47.450;8.654;2023-10-13T04:49:30;95644.41;;;10.49;89.50
44297;BME280;51842;47.450;8.654;2023-10-13T04:52:11;95653.47;;;10.48;88.84
44297;BME280;51842;47.450;8.654;2023-10-13T04:54:43;95646.00;;;10.45;89.79
44297;BME280;51842;47.450;8.654;2023-10-13T04:57:18;95641.19;;;10.36;89.88
44297;BME280;51842;47.450;8.654;2023-10-13T05:00:04;95636.91;;;10.30;90.00
44297;BME280;51842;47.450;8.654;2023-10-13T05:02:41;95634.28;;;10.46;88.60
44297;BME280;51842;47.450;8.654;2023-10-13T05:05:19;95632.22;;;10.63;88.19
44297;BME280;51842;47.450;8.654;2023-10-13T05:08:08;95645.00;;;10.66;87.58
44297;BME280;51842;47.450;8.654;2023-10-13T05:10:52;95641.81;;;10.74;87.48
44297;BME280;51842;47.450;8.654;2023-10-13T05:13:36;95634.91;;;10.73;87.19
44297;BME280;51842;47.450;8.654;2023-10-13T05:16:20;95635.13;;;10.72;86.55
44297;BME280;51842;47.450;8.654;2023-10-13T05:19:04;95640.75;;;10.75;86.80
44297;BME280;51842;47.450;8.654;2023-10-13T05:21:48;95633.31;;;10.87;86.26
44297;BME280;51842;47.450;8.654;2023-10-13T05:24:32;95642.91;;;10.99;84.87
44297;BME280;51842;47.450;8.654;2023-10-13T05:27:17;95651.97;;;11.03;85.18
44297;BME280;51842;47.450;8.654;2023-10-13T05:30:01;95651.19;;;11.02;85.06
44297;BME280;51842;47.450;8.654;2023-10-13T05:32:45;95647.47;;;11.03;84.82
44297;BME280;51842;47.450;8.654;2023-10-13T05:35:31;95642.13;;;10.98;85.30
44297;BME280;51842;47.450;8.654;2023-10-13T05:38:15;95650.63;;;10.90;86.12
44297;BME280;51842;47.450;8.654;2023-10-13T05:41:05;95650.06;;;10.78;86.86
44297;BME280;51842;47.450;8.654;2023-10-13T05:43:49;95649.00;;;10.63;87.97
44297;BME280;51842;47.450;8.654;2023-10-13T05:46:34;95654.53;;;10.52;88.45
44297;BME280;51842;47.450;8.654;2023-10-13T05:49:05;95648.41;;;10.46;88.02
44297;BME280;51842;47.450;8.654;2023-10-13T05:51:32;95646.00;;;10.45;88.48
44297;BME280;51842;47.450;8.654;2023-10-13T05:54:05;95646.25;;;10.43;87.88
44297;BME280;51842;47.450;8.654;2023-10-13T05:59:29;95649.75;;;10.49;86.98
44297;BME280;51842;47.450;8.654;2023-10-13T06:02:16;95652.16;;;10.55;87.59
44297;BME280;51842;47.450;8.654;2023-10-13T06:05:21;95650.00;;;10.52;88.05
44297;BME280;51842;47.450;8.654;2023-10-13T06:08:05;95645.75;;;10.51;88.35
44297;BME280;51842;47.450;8.654;2023-10-13T06:10:49;95648.44;;;10.51;88.31
44297;BME280;51842;47.450;8.654;2023-10-13T06:13:33;95659.06;;;10.46;88.67
44297;BME280;51842;47.450;8.654;2023-10-13T06:16:17;95653.47;;;10.48;88.78
44297;BME280;51842;47.450;8.654;2023-10-13T06:19:02;95651.63;;;10.48;88.31
44297;BME280;51842;47.450;8.654;2023-10-13T06:21:47;95652.94;;;10.46;89.56
44297;BME280;51842;47.450;8.654;2023-10-13T06:24:32;95657.72;;;10.49;89.54
44297;BME280;51842;47.450;8.654;2023-10-13T06:27:17;95658.81;;;10.48;89.72
44297;BME280;51842;47.450;8.654;2023-10-13T06:30:02;95660.13;;;10.45;90.06
44297;BME280;51842;47.450;8.654;2023-10-13T06:32:30;95657.22;;;10.47;89.64
44297;BME280;51842;47.450;8.654;2023-10-13T06:34:57;95656.16;;;10.58;89.95
44297;BME280;51842;47.450;8.654;2023-10-13T06:37:27;95656.19;;;10.63;90.29
44297;BME280;51842;47.450;8.654;2023-10-13T06:40:09;95656.72;;;10.70;89.50
44297;BME280;51842;47.450;8.654;2023-10-13T06:42:50;95659.44;;;10.85;86.64
44297;BME280;51842;47.450;8.654;2023-10-13T06:45:16;95659.19;;;11.02;85.93
44297;BME280;51842;47.450;8.654;2023-10-13T06:47:43;95655.75;;;11.22;85.02
44297;BME280;51842;47.450;8.654;2023-10-13T06:50:11;95662.66;;;11.44;82.17
44297;BME280;51842;47.450;8.654;2023-10-13T06:52:46;95657.31;;;11.59;82.74
44297;BME280;51842;47.450;8.654;2023-10-13T06:55:15;95657.03;;;11.71;82.20
44297;BME280;51842;47.450;8.654;2023-10-13T06:57:50;95666.38;;;11.78;81.72
44297;BME280;51842;47.450;8.654;2023-10-13T07:00:17;95663.44;;;11.85;78.30
44297;BME280;51842;47.450;8.654;2023-10-13T07:02:59;95662.59;;;12.05;80.93
44297;BME280;51842;47.450;8.654;2023-10-13T07:05:44;95662.03;;;12.13;80.29
44297;BME280;51842;47.450;8.654;2023-10-13T07:08:10;95657.47;;;12.19;79.73
44297;BME280;51842;47.450;8.654;2023-10-13T07:10:56;95670.28;;;12.22;80.01
44297;BME280;51842;47.450;8.654;2023-10-13T07:13:34;95668.38;;;12.33;80.80
44297;BME280;51842;47.450;8.654;2023-10-13T07:16:04;95666.97;;;12.50;80.37
44297;BME280;51842;47.450;8.654;2023-10-13T07:18:39;95674.88;;;12.71;78.30
44297;BME280;51842;47.450;8.654;2023-10-13T07:21:16;95677.47;;;12.91;76.00
44297;BME280;51842;47.450;8.654;2023-10-13T07:23:42;95682.66;;;13.12;75.46
44297;BME280;51842;47.450;8.654;2023-10-13T07:26:21;95684.13;;;13.38;72.21
44297;BME280;51842;47.450;8.654;2023-10-13T07:28:49;95695.06;;;13.71;73.08
44297;BME280;51842;47.450;8.654;2023-10-13T07:31:17;95683.19;;;14.11;69.03
44297;BME280;51842;47.450;8.654;2023-10-13T07:33:47;95689.06;;;14.62;65.99
44297;BME280;51842;47.450;8.654;2023-10-13T07:36:13;95686.41;;;15.18;64.66
44297;BME280;51842;47.450;8.654;2023-10-13T07:38:58;95687.59;;;15.83;60.22
44297;BME280;51842;47.450;8.654;2023-10-13T07:41:48;95684.28;;;16.46;58.74
44297;BME280;51842;47.450;8.654;2023-10-13T07:44:23;95689.41;;;16.98;58.62
44297;BME280;51842;47.450;8.654;2023-10-13T07:46:54;95691.06;;;17.44;56.02
44297;BME280;51842;47.450;8.654;2023-10-13T07:49:35;95685.06;;;17.92;53.13
44297;BME280;51842;47.450;8.654;2023-10-13T07:52:06;95690.38;;;18.37;53.14
44297;BME280;51842;47.450;8.654;2023-10-13T07:54:51;95689.47;;;18.90;49.79
44297;BME280;51842;47.450;8.654;2023-10-13T07:57:46;95692.69;;;19.44;49.43
44297;BME280;51842;47.450;8.654;2023-10-13T08:00:23;95691.56;;;19.80;47.71
44297;BME280;51842;47.450;8.654;2023-10-13T08:03:04;95686.31;;;20.30;47.11
44297;BME280;51842;47.450;8.654;2023-10-13T08:05:52;95687.25;;;20.82;45.57
44297;BME280;51842;47.450;8.654;2023-10-13T08:08:27;95682.66;;;21.24;45.56
44297;BME280;51842;47.450;8.654;2023-10-13T08:11:01;95678.84;;;21.46;44.12
44297;BME280;51842;47.450;8.654;2023-10-13T08:13:35;95686.66;;;21.81;43.39
44297;BME280;51842;47.450;8.654;2023-10-13T08:16:05;95680.84;;;22.24;42.21
44297;BME280;51842;47.450;8.654;2023-10-13T08:18:35;95675.44;;;22.61;41.21
44297;BME280;51842;47.450;8.654;2023-10-13T08:21:04;95673.19;;;23.00;41.51
44297;BME280;51842;47.450;8.654;2023-10-13T08:23:32;95676.28;;;23.39;40.99
44297;BME280;51842;47.450;8.654;2023-10-13T08:26:28;95677.41;;;23.66;40.89
44297;BME280;51842;47.450;8.654;2023-10-13T08:29:16;95673.91;;;23.93;40.18
44297;BME280;51842;47.450;8.654;2023-10-13T08:31:51;95665.88;;;24.13;39.07
44297;BME280;51842;47.450;8.654;2023-10-13T08:34:33;95671.63;;;24.39;39.63
44297;BME280;51842;47.450;8.654;2023-10-13T08:37:13;95661.28;;;24.61;37.57
44297;BME280;51842;47.450;8.654;2023-10-13T08:40:00;95657.47;;;24.81;36.64
44297;BME280;51842;47.450;8.654;2023-10-13T08:42:30;95659.69;;;25.11;37.43
44297;BME280;51842;47.450;8.654;2023-10-13T08:45:17;95657.81;;;25.31;35.85
44297;BME280;51842;47.450;8.654;2023-10-13T08:47:52;95654.66;;;25.48;35.95
44297;BME280;51842;47.450;8.654;2023-10-13T08:56:07;95644.38;;;26.00;33.20
44297;BME280;51842;47.450;8.654;2023-10-13T08:58:44;95640.69;;;26.35;32.04
44297;BME280;51842;47.450;8.654;2023-10-13T09:01:37;95637.50;;;26.52;33.57
44297;BME280;51842;47.450;8.654;2023-10-13T09:04:16;95636.22;;;26.95;32.51
44297;BME280;51842;47.450;8.654;2023-10-13T09:07:03;95635.88;;;27.27;32.64
44297;BME280;51842;47.450;8.654;2023-10-13T09:12:30;95640.13;;;27.55;32.08
44297;BME280;51842;47.450;8.654;2023-10-13T09:15:09;95632.84;;;27.69;31.70
44297;BME280;51842;47.450;8.654;2023-10-13T09:17:49;95632.81;;;27.66;31.34
44297;BME280;51842;47.450;8.654;2023-10-13T09:20:30;95639.97;;;27.74;31.75
44297;BME280;51842;47.450;8.654;2023-10-13T09:23:11;95633.25;;;27.68;31.35
44297;BME280;51842;47.450;8.654;2023-10-13T09:25:51;95633.84;;;27.84;31.01
44297;BME280;51842;47.450;8.654;2023-10-13T09:28:35;95637.63;;;28.10;30.87
44297;BME280;51842;47.450;8.654;2023-10-13T09:31:03;95635.25;;;28.05;30.73
44297;BME280;51842;47.450;8.654;2023-10-13T09:33:33;95628.69;;;28.17;30.65
44297;BME280;51842;47.450;8.654;2023-10-13T09:36:06;95628.59;;;28.06;30.71
44297;BME280;51842;47.450;8.654;2023-10-13T09:38:34;95628.53;;;27.65;31.20
44297;BME280;51842;47.450;8.654;2023-10-13T09:41:04;95629.88;;;27.48;32.31
44297;BME280;51842;47.450;8.654;2023-10-13T09:43:52;95620.53;;;27.83;31.85
44297;BME280;51842;47.450;8.654;2023-10-13T09:46:26;95617.94;;;27.97;30.28
44297;BME280;51842;47.450;8.654;2023-10-13T09:48:59;95617.59;;;27.99;31.08
44297;BME280;51842;47.450;8.654;2023-10-13T09:51:34;95612.63;;;28.11;29.93
44297;BME280;51842;47.450;8.654;2023-10-13T09:54:33;95608.97;;;28.41;29.91
44297;BME280;51842;47.450;8.654;2023-10-13T09:57:17;95611.16;;;28.69;29.80
44297;BME280;51842;47.450;8.654;2023-10-13T10:00:14;95609.28;;;28.84;29.37
44297;BME280;51842;47.450;8.654;2023-10-13T10:02:59;95604.63;;;28.92;29.20
44297;BME280;51842;47.450;8.654;2023-10-13T10:05:42;95608.53;;;28.91;28.51
44297;BME280;51842;47.450;8.654;2023-10-13T10:08:24;95600.66;;;28.82;28.44
44297;BME280;51842;47.450;8.654;2023-10-13T10:11:41;95595.72;;;29.02;28.48
44297;BME280;51842;47.450;8.654;2023-10-13T10:17:27;95596.91;;;29.08;27.74
44297;BME280;51842;47.450;8.654;2023-10-13T10:19:56;95592.84;;;28.84;28.21
44297;BME280;51842;47.450;8.654;2023-10-13T10:22:29;95588.75;;;29.19;28.98
44297;BME280;51842;47.450;8.654;2023-10-13T10:25:00;95587.63;;;29.31;27.70
44297;BME280;51842;47.450;8.654;2023-10-13T10:27:31;95579.28;;;29.05;28.21
44297;BME280;51842;47.450;8.654;2023-10-13T10:29:58;95573.50;;;29.28;27.87
44297;BME280;51842;47.450;8.654;2023-10-13T10:32:34;95582.06;;;29.16;27.62
44297;BME280;51842;47.450;8.654;2023-10-13T10:35:07;95575.81;;;29.19;27.83
44297;BME280;51842;47.450;8.654;2023-10-13T10:37:46;95560.22;;;29.38;27.91
44297;BME280;51842;47.450;8.654;2023-10-13T10:40:15;95561.78;;;29.42;28.01
44297;BME280;51842;47.450;8.654;2023-10-13T10:43:07;95560.34;;;29.73;27.26
44297;BME280;51842;47.450;8.654;2023-10-13T10:45:36;95558.81;;;30.01;26.36
44297;BME280;51842;47.450;8.654;2023-10-13T10:48:02;95552.13;;;29.84;26.84
44297;BME280;51842;47.450;8.654;2023-10-13T10:51:05;95547.81;;;29.76;26.81
44297;BME280;51842;47.450;8.654;2023-10-13T10:53:39;95551.38;;;30.12;26.26
44297;BME280;51842;47.450;8.654;2023-10-13T10:56:12;95543.88;;;29.73;26.65
44297;BME280;51842;47.450;8.654;2023-10-13T10:59:17;95542.72;;;29.89;26.55
44297;BME280;51842;47.450;8.654;2023-10-13T11:01:50;95535.69;;;30.09;26.76
44297;BME280;51842;47.450;8.654;2023-10-13T11:04:19;95532.19;;;30.34;26.16
44297;BME280;51842;47.450;8.654;2023-10-13T11:06:51;95528.63;;;29.90;27.12
44297;BME280;51842;47.450;8.654;2023-10-13T11:09:34;95523.94;;;30.09;26.58
44297;BME280;51842;47.450;8.654;2023-10-13T11:14:32;95513.72;;;30.27;26.60
44297;BME280;51842;47.450;8.654;2023-10-13T11:16:59;95514.50;;;30.46;26.10
44297;BME280;51842;47.450;8.654;2023-10-13T11:19:43;95510.56;;;30.57;26.21
44297;BME280;51842;47.450;8.654;2023-10-13T11:22:13;95506.56;;;30.83;26.49
44297;BME280;51842;47.450;8.654;2023-10-13T11:25:00;95494.81;;;30.76;26.31
44297;BME280;51842;47.450;8.654;2023-10-13T11:27:33;95500.94;;;31.19;25.56
44297;BME280;51842;47.450;8.654;2023-10-13T11:30:18;95494.59;;;31.33;25.61
44297;BME280;51842;47.450;8.654;2023-10-13T11:33:09;95490.66;;;31.30;25.96
44297;BME280;51842;47.450;8.654;2023-10-13T11:35:40;95479.63;;;31.45;25.36
44297;BME280;51842;47.450;8.654;2023-10-13T11:38:31;95483.91;;;31.49;25.25
44297;BME280;51842;47.450;8.654;2023-10-13T11:41:16;95484.19;;;31.69;25.31
44297;BME280;51842;47.450;8.654;2023-10-13T11:43:51;95472.81;;;31.64;25.26
44297;BME280;51842;47.450;8.654;2023-10-13T11:46:27;95476.50;;;31.98;24.86
44297;BME280;51842;47.450;8.654;2023-10-13T11:49:04;95471.50;;;32.31;24.60
44297;BME280;51842;47.450;8.654;2023-10-13T11:51:48;95460.69;;;32.10;24.77
44297;BME280;51842;47.450;8.654;2023-10-13T11:56:42;95460.44;;;32.35;24.77
44297;BME280;51842;47.450;8.654;2023-10-13T11:59:07;95458.88;;;32.34;25.04
44297;BME280;51842;47.450;8.654;2023-10-13T12:01:44;95453.84;;;32.25;25.05
44297;BME280;51842;47.450;8.654;2023-10-13T12:04:28;95443.81;;;32.04;24.13
44297;BME280;51842;47.450;8.654;2023-10-13T12:07:10;95441.97;;;32.32;25.73
44297;BME280;51842;47.450;8.654;2023-10-13T12:09:51;95427.91;;;32.22;24.67
44297;BME280;51842;47.450;8.654;2023-10-13T12:12:24;95431.25;;;32.44;24.76
44297;BME280;51842;47.450;8.654;2023-10-13T12:14:51;95428.97;;;31.87;24.19
44297;BME280;51842;47.450;8.654;2023-10-13T12:17:28;95416.19;;;32.11;23.53
44297;BME280;51842;47.450;8.654;2023-10-13T12:20:04;95422.81;;;32.17;23.28
44297;BME280;51842;47.450;8.654;2023-10-13T12:22:39;95408.66;;;32.19;24.14
44297;BME280;51842;47.450;8.654;2023-10-13T12:25:09;95412.28;;;32.09;23.90
44297;BME280;51842;47.450;8.654;2023-10-13T12:27:54;95403.16;;;32.15;23.13
44297;BME280;51842;47.450;8.654;2023-10-13T12:30:26;95405.09;;;32.18;23.21
44297;BME280;51842;47.450;8.654;2023-10-13T12:33:04;95412.28;;;32.09;23.44
44297;BME280;51842;47.450;8.654;2023-10-13T12:35:41;95401.47;;;32.29;24.15
44297;BME280;51842;47.450;8.654;2023-10-13T12:38:24;95395.19;;;32.24;23.26
44297;BME280;51842;47.450;8.654;2023-10-13T12:41:07;95393.72;;;31.68;23.63
44297;BME280;51842;47.450;8.654;2023-10-13T12:43:52;95395.44;;;31.51;23.83
44297;BME280;51842;47.450;8.654;2023-10-13T12:46:36;95382.47;;;31.51;24.02
44297;BME280;51842;47.450;8.654;2023-10-13T12:49:20;95384.00;;;32.05;23.79
44297;BME280;51842;47.450;8.654;2023-10-13T12:52:04;95379.59;;;31.66;23.64
44297;BME280;51842;47.450;8.654;2023-10-13T12:54:31;95381.75;;;31.92;23.45
44297;BME280;51842;47.450;8.654;2023-10-13T12:57:04;95380.03;;;32.09;22.99
44297;BME280;51842;47.450;8.654;2023-10-13T12:59:35;95372.88;;;31.70;23.97
44297;BME280;51842;47.450;8.654;2023-10-13T13:02:01;95369.84;;;32.02;23.37
44297;BME280;51842;47.450;8.654;2023-10-13T13:04:32;95364.31;;;32.02;23.12
44297;BME280;51842;47.450;8.654;2023-10-13T13:07:02;95369.91;;;31.95;22.47
44297;BME280;51842;47.450;8.654;2023-10-13T13:09:31;95356.19;;;31.92;23.29
44297;BME280;51842;47.450;8.654;2023-10-13T13:11:58;95358.25;;;32.22;22.77
44297;BME280;51842;47.450;8.654;2023-10-13T13:14:24;95356.41;;;32.08;23.08
44297;BME280;51842;47.450;8.654;2023-10-13T13:16:55;95358.47;;;31.52;23.54
44297;BME280;51842;47.450;8.654;2023-10-13T13:19:36;95351.50;;;31.89;23.98
44297;BME280;51842;47.450;8.654;2023-10-13T13:22:05;95356.06;;;31.57;23.40
44297;BME280;51842;47.450;8.654;2023-10-13T13:24:43;95345.41;;;31.07;23.29
44297;BME280;51842;47.450;8.654;2023-10-13T13:27:15;95349.84;;;30.91;23.80
44297;BME280;51842;47.450;8.654;2023-10-13T13:29:45;95342.22;;;31.16;23.93
44297;BME280;51842;47.450;8.654;2023-10-13T13:32:12;95340.31;;;31.09;23.38
44297;BME280;51842;47.450;8.654;2023-10-13T13:34:52;95341.94;;;30.96;24.60
44297;BME280;51842;47.450;8.654;2023-10-13T13:37:44;95333.81;;;30.67;24.21
44297;BME280;51842;47.450;8.654;2023-10-13T13:40:13;95331.59;;;30.45;23.71
44297;BME280;51842;47.450;8.654;2023-10-13T13:42:48;95326.66;;;30.92;23.66
44297;BME280;51842;47.450;8.654;2023-10-13T13:45:14;95332.22;;;30.84;23.53
44297;BME280;51842;47.450;8.654;2023-10-13T13:47:49;95322.09;;;30.60;23.29
44297;BME280;51842;47.450;8.654;2023-10-13T13:52:51;95315.59;;;30.07;23.47
44297;BME280;51842;47.450;8.654;2023-10-13T13:55:19;95308.97;;;29.97;22.63
44297;BME280;51842;47.450;8.654;2023-10-13T13:57:45;95309.72;;;30.12;23.49
44297;BME280;51842;47.450;8.654;2023-10-13T14:00:13;95308.19;;;30.01;22.38
44297;BME280;51842;47.450;8.654;2023-10-13T14:03:08;95298.06;;;29.47;23.08
44297;BME280;51842;47.450;8.654;2023-10-13T14:05:52;95298.84;;;29.59;22.68
44297;BME280;51842;47.450;8.654;2023-10-13T14:08:18;95294.50;;;29.76;22.86
44297;BME280;51842;47.450;8.654;2023-10-13T14:10:44;95290.22;;;29.74;23.07
44297;BME280;51842;47.450;8.654;2023-10-13T14:13:30;95291.66;;;30.22;23.27